sensor_id;sensor_type;location;lat;lon;timestamp;P1;durP1;ratioP1;P2;durP2;ratioP2
38435;SDS011;24220;48.168;14.024;2022-10-31T00:01:28;19.35;;;13.70;;
38435;SDS011;24220;48.168;14.024;2022-10-31T00:04:03;20.15;;;13.90;;
38435;SDS011;24220;48.168;14.024;2022-10-31T00:06:30;19.17;;;12.93;;
38435;SDS011;24220;48.168;14.024;2022-10-31T00:08:59;18.92;;;13.07;;
38435;SDS011;24220;48.168;14.024;2022-10-31T00:11:28;21.25;;;12.38;;
38435;SDS011;24220;48.168;14.024;2022-10-31T00:14:00;22.02;;;13.10;;
38435;SDS011;24220;48.168;14.024;2022-10-31T00:16:28;26.15;;;12.40;;
38435;SDS011;24220;48.168;14.024;2022-10-31T00:18:57;29.42;;;12.85;;
38435;SDS011;24220;48.168;14.024;2022-10-31T00:21:26;35.35;;;11.93;;
38435;SDS011;24220;48.168;14.024;2022-10-31T00:23:56;35.78;;;12.38;;
38435;SDS011;24220;48.168;14.024;2022-10-31T00:26:27;19.42;;;12.20;;
38435;SDS011;24220;48.168;14.024;2022-10-31T00:28:56;27.90;;;13.25;;
38435;SDS011;24220;48.168;14.024;2022-10-31T00:31:26;48.00;;;13.95;;
38435;SDS011;24220;48.168;14.024;2022-10-31T00:33:54;31.55;;;12.73;;
38435;SDS011;24220;48.168;14.024;2022-10-31T00:36:23;52.95;;;12.20;;
38435;SDS011;24220;48.168;14.024;2022-10-31T00:38:57;47.45;;;11.93;;
38435;SDS011;24220;48.168;14.024;2022-10-31T00:41:28;36.92;;;11.38;;
38435;SDS011;24220;48.168;14.024;2022-10-31T00:43:56;38.47;;;11.20;;
38435;SDS011;24220;48.168;14.024;2022-10-31T00:46:23;34.78;;;11.50;;
38435;SDS011;24220;48.168;14.024;2022-10-31T00:48:51;36.08;;;11.43;;
38435;SDS011;24220;48.168;14.024;2022-10-31T00:51:18;32.08;;;10.65;;
38435;SDS011;24220;48.168;14.024;2022-10-31T00:53:46;28.13;;;11.15;;
38435;SDS011;24220;48.168;14.024;2022-10-31T00:56:15;34.42;;;10.60;;
38435;SDS011;24220;48.168;14.024;2022-10-31T00:58:43;27.70;;;10.38;;
38435;SDS011;24220;48.168;14.024;2022-10-31T01:01:10;20.90;;;9.65;;
38435;SDS011;24220;48.168;14.024;2022-10-31T01:03:40;15.25;;;9.63;;
38435;SDS011;24220;48.168;14.024;2022-10-31T01:06:12;18.70;;;10.07;;
38435;SDS011;24220;48.168;14.024;2022-10-31T01:08:40;21.65;;;8.82;;
38435;SDS011;24220;48.168;14.024;2022-10-31T01:11:10;27.48;;;9.45;;
38435;SDS011;24220;48.168;14.024;2022-10-31T01:13:40;20.88;;;10.15;;
38435;SDS011;24220;48.168;14.024;2022-10-31T01:16:09;18.75;;;9.68;;
38435;SDS011;24220;48.168;14.024;2022-10-31T01:18:41;30.13;;;10.18;;
38435;SDS011;24220;48.168;14.024;2022-10-31T01:21:09;19.35;;;10.25;;
38435;SDS011;24220;48.168;14.024;2022-10-31T01:23:44;12.73;;;9.90;;
38435;SDS011;24220;48.168;14.024;2022-10-31T01:26:15;22.55;;;9.93;;
38435;SDS011;24220;48.168;14.024;2022-10-31T01:28:47;23.95;;;9.20;;
38435;SDS011;24220;48.168;14.024;2022-10-31T01:31:23;15.07;;;9.50;;
38435;SDS011;24220;48.168;14.024;2022-10-31T01:33:56;17.80;;;9.57;;
38435;SDS011;24220;48.168;14.024;2022-10-31T01:36:28;15.70;;;9.68;;
38435;SDS011;24220;48.168;14.024;2022-10-31T01:38:58;16.92;;;10.05;;
38435;SDS011;24220;48.168;14.024;2022-10-31T01:41:30;13.88;;;9.07;;
38435;SDS011;24220;48.168;14.024;2022-10-31T01:44:01;26.50;;;9.52;;
38435;SDS011;24220;48.168;14.024;2022-10-31T01:46:46;13.15;;;8.52;;
38435;SDS011;24220;48.168;14.024;2022-10-31T01:49:40;11.63;;;8.23;;
38435;SDS011;24220;48.168;14.024;2022-10-31T01:52:30;19.20;;;8.15;;
38435;SDS011;24220;48.168;14.024;2022-10-31T01:55:13;12.70;;;7.88;;
38435;SDS011;24220;48.168;14.024;2022-10-31T01:57:51;11.23;;;7.57;;
38435;SDS011;24220;48.168;14.024;2022-10-31T02:00:20;12.50;;;8.18;;
38435;SDS011;24220;48.168;14.024;2022-10-31T02:02:49;18.77;;;8.23;;
38435;SDS011;24220;48.168;14.024;2022-10-31T02:05:23;15.50;;;7.70;;
38435;SDS011;24220;48.168;14.024;2022-10-31T02:10:29;12.95;;;7.90;;
38435;SDS011;24220;48.168;14.024;2022-10-31T02:12:59;26.58;;;8.52;;
38435;SDS011;24220;48.168;14.024;2022-10-31T02:15:29;13.20;;;8.13;;
38435;SDS011;24220;48.168;14.024;2022-10-31T02:18:01;11.10;;;8.05;;
38435;SDS011;24220;48.168;14.024;2022-10-31T02:20:37;12.15;;;7.80;;
38435;SDS011;24220;48.168;14.024;2022-10-31T02:48:14;17.02;;;7.63;;
38435;SDS011;24220;48.168;14.024;2022-10-31T02:50:48;11.68;;;7.20;;
38435;SDS011;24220;48.168;14.024;2022-10-31T02:53:21;14.35;;;7.10;;
38435;SDS011;24220;48.168;14.024;2022-10-31T02:55:54;16.80;;;7.88;;
38435;SDS011;24220;48.168;14.024;2022-10-31T02:58:59;16.35;;;8.95;;
38435;SDS011;24220;48.168;14.024;2022-10-31T03:01:48;11.30;;;8.75;;
38435;SDS011;24220;48.168;14.024;2022-10-31T03:07:25;15.85;;;9.55;;
38435;SDS011;24220;48.168;14.024;2022-10-31T03:13:05;19.92;;;10.10;;
38435;SDS011;24220;48.168;14.024;2022-10-31T03:15:49;15.80;;;8.95;;
38435;SDS011;24220;48.168;14.024;2022-10-31T03:24:06;20.67;;;9.80;;
38435;SDS011;24220;48.168;14.024;2022-10-31T03:26:38;16.70;;;10.25;;
38435;SDS011;24220;48.168;14.024;2022-10-31T03:29:10;15.20;;;9.93;;
38435;SDS011;24220;48.168;14.024;2022-10-31T03:31:44;12.45;;;9.93;;
38435;SDS011;24220;48.168;14.024;2022-10-31T03:34:18;15.00;;;9.48;;
38435;SDS011;24220;48.168;14.024;2022-10-31T03:36:51;17.55;;;9.82;;
38435;SDS011;24220;48.168;14.024;2022-10-31T03:39:21;17.10;;;8.60;;
38435;SDS011;24220;48.168;14.024;2022-10-31T03:42:04;16.60;;;7.95;;
38435;SDS011;24220;48.168;14.024;2022-10-31T03:44:36;13.82;;;7.45;;
38435;SDS011;24220;48.168;14.024;2022-10-31T03:47:07;17.33;;;7.63;;
38435;SDS011;24220;48.168;14.024;2022-10-31T03:49:37;13.80;;;8.00;;
38435;SDS011;24220;48.168;14.024;2022-10-31T03:52:12;15.38;;;8.32;;
38435;SDS011;24220;48.168;14.024;2022-10-31T03:57:51;12.68;;;8.75;;
38435;SDS011;24220;48.168;14.024;2022-10-31T04:00:25;11.48;;;8.75;;
38435;SDS011;24220;48.168;14.024;2022-10-31T04:05:29;19.77;;;8.00;;
38435;SDS011;24220;48.168;14.024;2022-10-31T04:07:58;10.93;;;8.27;;
38435;SDS011;24220;48.168;14.024;2022-10-31T04:10:30;13.57;;;7.63;;
38435;SDS011;24220;48.168;14.024;2022-10-31T04:13:01;11.30;;;7.85;;
38435;SDS011;24220;48.168;14.024;2022-10-31T04:15:35;12.02;;;7.20;;
38435;SDS011;24220;48.168;14.024;2022-10-31T04:18:07;9.38;;;7.18;;
38435;SDS011;24220;48.168;14.024;2022-10-31T04:20:38;11.88;;;6.78;;
38435;SDS011;24220;48.168;14.024;2022-10-31T04:23:25;20.33;;;7.13;;
38435;SDS011;24220;48.168;14.024;2022-10-31T04:25:53;14.30;;;7.15;;
38435;SDS011;24220;48.168;14.024;2022-10-31T04:28:21;11.73;;;6.38;;
38435;SDS011;24220;48.168;14.024;2022-10-31T04:30:49;10.20;;;6.63;;
38435;SDS011;24220;48.168;14.024;2022-10-31T04:33:16;11.63;;;6.38;;
38435;SDS011;24220;48.168;14.024;2022-10-31T04:35:46;8.55;;;6.88;;
38435;SDS011;24220;48.168;14.024;2022-10-31T04:38:16;8.45;;;6.55;;
38435;SDS011;24220;48.168;14.024;2022-10-31T04:40:46;7.82;;;6.40;;
38435;SDS011;24220;48.168;14.024;2022-10-31T04:43:16;12.80;;;6.65;;
38435;SDS011;24220;48.168;14.024;2022-10-31T04:45:43;11.18;;;6.43;;
38435;SDS011;24220;48.168;14.024;2022-10-31T04:48:10;11.45;;;7.05;;
38435;SDS011;24220;48.168;14.024;2022-10-31T04:50:37;7.95;;;5.82;;
38435;SDS011;24220;48.168;14.024;2022-10-31T04:53:12;12.57;;;6.13;;
38435;SDS011;24220;48.168;14.024;2022-10-31T04:55:39;14.43;;;6.03;;
38435;SDS011;24220;48.168;14.024;2022-10-31T04:58:06;11.52;;;6.60;;
38435;SDS011;24220;48.168;14.024;2022-10-31T05:00:34;10.98;;;5.53;;
38435;SDS011;24220;48.168;14.024;2022-10-31T05:03:03;12.68;;;5.70;;
38435;SDS011;24220;48.168;14.024;2022-10-31T05:05:31;9.70;;;5.88;;
38435;SDS011;24220;48.168;14.024;2022-10-31T05:07:58;9.93;;;6.00;;
38435;SDS011;24220;48.168;14.024;2022-10-31T05:10:30;15.27;;;6.80;;
38435;SDS011;24220;48.168;14.024;2022-10-31T05:12:59;6.93;;;6.20;;
38435;SDS011;24220;48.168;14.024;2022-10-31T05:15:31;14.90;;;6.07;;
38435;SDS011;24220;48.168;14.024;2022-10-31T05:18:00;11.50;;;5.20;;
38435;SDS011;24220;48.168;14.024;2022-10-31T05:20:31;8.95;;;5.63;;
38435;SDS011;24220;48.168;14.024;2022-10-31T05:22:59;17.50;;;5.60;;
38435;SDS011;24220;48.168;14.024;2022-10-31T05:25:27;8.95;;;5.18;;
38435;SDS011;24220;48.168;14.024;2022-10-31T05:27:57;9.55;;;5.05;;
38435;SDS011;24220;48.168;14.024;2022-10-31T05:30:28;9.70;;;5.53;;
38435;SDS011;24220;48.168;14.024;2022-10-31T05:33:00;17.08;;;6.88;;
38435;SDS011;24220;48.168;14.024;2022-10-31T05:35:29;6.50;;;5.50;;
38435;SDS011;24220;48.168;14.024;2022-10-31T05:37:58;18.35;;;5.05;;
38435;SDS011;24220;48.168;14.024;2022-10-31T05:40:26;7.10;;;4.75;;
38435;SDS011;24220;48.168;14.024;2022-10-31T05:42:56;19.05;;;5.15;;
38435;SDS011;24220;48.168;14.024;2022-10-31T05:45:27;5.55;;;4.20;;
38435;SDS011;24220;48.168;14.024;2022-10-31T05:47:55;10.45;;;4.63;;
38435;SDS011;24220;48.168;14.024;2022-10-31T05:50:30;18.23;;;4.45;;
38435;SDS011;24220;48.168;14.024;2022-10-31T05:52:59;9.68;;;4.43;;
38435;SDS011;24220;48.168;14.024;2022-10-31T05:55:36;15.90;;;4.40;;
38435;SDS011;24220;48.168;14.024;2022-10-31T05:58:03;9.48;;;4.50;;
38435;SDS011;24220;48.168;14.024;2022-10-31T06:00:33;6.35;;;4.10;;
38435;SDS011;24220;48.168;14.024;2022-10-31T06:03:02;6.43;;;4.80;;
38435;SDS011;24220;48.168;14.024;2022-10-31T06:05:32;4.53;;;4.13;;
38435;SDS011;24220;48.168;14.024;2022-10-31T06:08:00;9.15;;;4.05;;
38435;SDS011;24220;48.168;14.024;2022-10-31T06:10:28;4.95;;;4.05;;
38435;SDS011;24220;48.168;14.024;2022-10-31T06:12:57;6.45;;;4.45;;
38435;SDS011;24220;48.168;14.024;2022-10-31T06:15:27;5.25;;;4.20;;
38435;SDS011;24220;48.168;14.024;2022-10-31T06:18:02;7.15;;;5.30;;
38435;SDS011;24220;48.168;14.024;2022-10-31T06:20:33;9.13;;;4.93;;
38435;SDS011;24220;48.168;14.024;2022-10-31T06:23:00;6.50;;;4.85;;
38435;SDS011;24220;48.168;14.024;2022-10-31T06:25:31;7.22;;;5.20;;
38435;SDS011;24220;48.168;14.024;2022-10-31T06:27:59;7.47;;;4.63;;
38435;SDS011;24220;48.168;14.024;2022-10-31T06:30:27;8.90;;;4.53;;
38435;SDS011;24220;48.168;14.024;2022-10-31T06:33:04;6.60;;;4.65;;
38435;SDS011;24220;48.168;14.024;2022-10-31T06:35:31;9.52;;;5.10;;
38435;SDS011;24220;48.168;14.024;2022-10-31T06:38:04;9.88;;;4.15;;
38435;SDS011;24220;48.168;14.024;2022-10-31T06:40:32;6.63;;;4.65;;
38435;SDS011;24220;48.168;14.024;2022-10-31T06:43:00;6.22;;;4.43;;
38435;SDS011;24220;48.168;14.024;2022-10-31T06:45:30;9.90;;;4.45;;
38435;SDS011;24220;48.168;14.024;2022-10-31T06:47:58;9.80;;;4.40;;
38435;SDS011;24220;48.168;14.024;2022-10-31T06:50:43;15.43;;;8.57;;
38435;SDS011;24220;48.168;14.024;2022-10-31T06:53:10;12.35;;;6.97;;
38435;SDS011;24220;48.168;14.024;2022-10-31T06:55:46;12.82;;;7.25;;
38435;SDS011;24220;48.168;14.024;2022-10-31T06:58:14;25.60;;;7.60;;
38435;SDS011;24220;48.168;14.024;2022-10-31T07:00:41;7.55;;;5.93;;
38435;SDS011;24220;48.168;14.024;2022-10-31T07:03:12;9.25;;;5.05;;
38435;SDS011;24220;48.168;14.024;2022-10-31T07:05:42;8.95;;;5.18;;
38435;SDS011;24220;48.168;14.024;2022-10-31T07:08:11;7.55;;;5.35;;
38435;SDS011;24220;48.168;14.024;2022-10-31T07:10:42;5.20;;;4.70;;
38435;SDS011;24220;48.168;14.024;2022-10-31T07:13:12;8.80;;;6.18;;
38435;SDS011;24220;48.168;14.024;2022-10-31T07:15:41;11.85;;;5.95;;
38435;SDS011;24220;48.168;14.024;2022-10-31T07:18:11;9.45;;;5.78;;
38435;SDS011;24220;48.168;14.024;2022-10-31T07:20:39;6.22;;;5.63;;
38435;SDS011;24220;48.168;14.024;2022-10-31T07:23:09;12.50;;;4.60;;
38435;SDS011;24220;48.168;14.024;2022-10-31T07:25:40;7.15;;;5.25;;
38435;SDS011;24220;48.168;14.024;2022-10-31T07:28:08;7.68;;;5.47;;
38435;SDS011;24220;48.168;14.024;2022-10-31T07:30:36;10.63;;;6.13;;
38435;SDS011;24220;48.168;14.024;2022-10-31T07:33:05;7.55;;;6.40;;
38435;SDS011;24220;48.168;14.024;2022-10-31T07:35:33;13.75;;;5.93;;
38435;SDS011;24220;48.168;14.024;2022-10-31T07:38:11;16.08;;;5.55;;
38435;SDS011;24220;48.168;14.024;2022-10-31T07:40:40;5.70;;;5.20;;
38435;SDS011;24220;48.168;14.024;2022-10-31T07:43:10;7.20;;;5.20;;
38435;SDS011;24220;48.168;14.024;2022-10-31T07:45:41;6.13;;;5.18;;
38435;SDS011;24220;48.168;14.024;2022-10-31T07:48:10;5.35;;;4.85;;
38435;SDS011;24220;48.168;14.024;2022-10-31T07:50:40;7.75;;;5.10;;
38435;SDS011;24220;48.168;14.024;2022-10-31T07:53:09;6.40;;;5.13;;
38435;SDS011;24220;48.168;14.024;2022-10-31T07:55:39;6.72;;;5.03;;
38435;SDS011;24220;48.168;14.024;2022-10-31T07:58:14;8.13;;;5.88;;
38435;SDS011;24220;48.168;14.024;2022-10-31T08:00:44;9.50;;;6.30;;
38435;SDS011;24220;48.168;14.024;2022-10-31T08:03:16;13.77;;;6.65;;
38435;SDS011;24220;48.168;14.024;2022-10-31T08:05:54;8.90;;;5.93;;
38435;SDS011;24220;48.168;14.024;2022-10-31T08:08:22;7.35;;;6.53;;
38435;SDS011;24220;48.168;14.024;2022-10-31T08:10:51;10.27;;;6.47;;
38435;SDS011;24220;48.168;14.024;2022-10-31T08:13:21;6.85;;;6.25;;
38435;SDS011;24220;48.168;14.024;2022-10-31T08:15:51;8.82;;;6.13;;
38435;SDS011;24220;48.168;14.024;2022-10-31T08:18:20;6.85;;;6.13;;
38435;SDS011;24220;48.168;14.024;2022-10-31T08:20:50;9.25;;;7.30;;
38435;SDS011;24220;48.168;14.024;2022-10-31T08:23:19;22.40;;;7.60;;
38435;SDS011;24220;48.168;14.024;2022-10-31T08:25:47;13.43;;;6.70;;
38435;SDS011;24220;48.168;14.024;2022-10-31T08:28:14;14.65;;;7.93;;
38435;SDS011;24220;48.168;14.024;2022-10-31T08:30:42;12.68;;;7.63;;
38435;SDS011;24220;48.168;14.024;2022-10-31T08:35:42;15.40;;;7.90;;
38435;SDS011;24220;48.168;14.024;2022-10-31T08:38:10;10.02;;;7.50;;
38435;SDS011;24220;48.168;14.024;2022-10-31T08:40:38;13.50;;;7.40;;
38435;SDS011;24220;48.168;14.024;2022-10-31T08:48:11;12.57;;;8.27;;
38435;SDS011;24220;48.168;14.024;2022-10-31T08:50:44;9.30;;;7.38;;
38435;SDS011;24220;48.168;14.024;2022-10-31T08:53:15;8.57;;;7.55;;
38435;SDS011;24220;48.168;14.024;2022-10-31T08:55:49;10.82;;;8.00;;
38435;SDS011;24220;48.168;14.024;2022-10-31T08:58:19;20.05;;;8.20;;
38435;SDS011;24220;48.168;14.024;2022-10-31T09:00:51;12.15;;;7.15;;
38435;SDS011;24220;48.168;14.024;2022-10-31T09:03:21;11.32;;;8.23;;
38435;SDS011;24220;48.168;14.024;2022-10-31T09:05:50;9.80;;;8.00;;
38435;SDS011;24220;48.168;14.024;2022-10-31T09:08:20;11.27;;;8.02;;
38435;SDS011;24220;48.168;14.024;2022-10-31T09:10:48;11.68;;;8.02;;
38435;SDS011;24220;48.168;14.024;2022-10-31T09:13:18;11.68;;;7.95;;
38435;SDS011;24220;48.168;14.024;2022-10-31T09:15:53;9.43;;;8.52;;
38435;SDS011;24220;48.168;14.024;2022-10-31T09:18:23;11.15;;;7.80;;
38435;SDS011;24220;48.168;14.024;2022-10-31T09:20:51;12.20;;;9.00;;
38435;SDS011;24220;48.168;14.024;2022-10-31T09:23:19;10.65;;;8.18;;
38435;SDS011;24220;48.168;14.024;2022-10-31T09:25:51;14.80;;;9.07;;
38435;SDS011;24220;48.168;14.024;2022-10-31T09:28:22;10.70;;;9.13;;
38435;SDS011;24220;48.168;14.024;2022-10-31T09:30:52;9.77;;;8.77;;
38435;SDS011;24220;48.168;14.024;2022-10-31T09:33:22;10.15;;;8.60;;
38435;SDS011;24220;48.168;14.024;2022-10-31T09:35:50;10.65;;;9.18;;
38435;SDS011;24220;48.168;14.024;2022-10-31T09:38:20;16.40;;;8.57;;
38435;SDS011;24220;48.168;14.024;2022-10-31T09:43:49;13.00;;;9.88;;
38435;SDS011;24220;48.168;14.024;2022-10-31T09:47:01;9.50;;;8.50;;
38435;SDS011;24220;48.168;14.024;2022-10-31T09:49:53;10.27;;;8.00;;
38435;SDS011;24220;48.168;14.024;2022-10-31T09:52:43;13.57;;;8.68;;
38435;SDS011;24220;48.168;14.024;2022-10-31T09:55:22;9.80;;;8.32;;
38435;SDS011;24220;48.168;14.024;2022-10-31T09:58:00;9.82;;;8.82;;
38435;SDS011;24220;48.168;14.024;2022-10-31T10:00:28;9.55;;;8.45;;
38435;SDS011;24220;48.168;14.024;2022-10-31T10:03:13;9.07;;;8.18;;
38435;SDS011;24220;48.168;14.024;2022-10-31T10:05:53;11.90;;;8.63;;
38435;SDS011;24220;48.168;14.024;2022-10-31T10:08:40;12.60;;;8.18;;
38435;SDS011;24220;48.168;14.024;2022-10-31T10:14:21;9.10;;;7.97;;
38435;SDS011;24220;48.168;14.024;2022-10-31T10:20:01;8.80;;;7.90;;
38435;SDS011;24220;48.168;14.024;2022-10-31T10:25:39;9.70;;;8.15;;
38435;SDS011;24220;48.168;14.024;2022-10-31T10:28:30;10.00;;;8.63;;
38435;SDS011;24220;48.168;14.024;2022-10-31T10:31:13;9.93;;;8.27;;
38435;SDS011;24220;48.168;14.024;2022-10-31T10:36:39;10.48;;;9.30;;
38435;SDS011;24220;48.168;14.024;2022-10-31T10:39:12;10.25;;;8.82;;
38435;SDS011;24220;48.168;14.024;2022-10-31T10:41:47;12.95;;;9.63;;
38435;SDS011;24220;48.168;14.024;2022-10-31T10:44:44;11.10;;;9.88;;
38435;SDS011;24220;48.168;14.024;2022-10-31T10:47:37;11.07;;;9.52;;
38435;SDS011;24220;48.168;14.024;2022-10-31T10:58:22;12.88;;;11.02;;
38435;SDS011;24220;48.168;14.024;2022-10-31T11:00:52;14.55;;;11.80;;
38435;SDS011;24220;48.168;14.024;2022-10-31T11:03:21;13.90;;;11.73;;
38435;SDS011;24220;48.168;14.024;2022-10-31T11:05:54;12.27;;;11.00;;
38435;SDS011;24220;48.168;14.024;2022-10-31T11:08:25;12.52;;;11.27;;
38435;SDS011;24220;48.168;14.024;2022-10-31T11:10:58;14.48;;;10.98;;
38435;SDS011;24220;48.168;14.024;2022-10-31T11:13:30;18.48;;;13.27;;
38435;SDS011;24220;48.168;14.024;2022-10-31T11:16:00;13.88;;;11.90;;
38435;SDS011;24220;48.168;14.024;2022-10-31T11:18:39;14.48;;;12.02;;
38435;SDS011;24220;48.168;14.024;2022-10-31T11:21:25;13.70;;;11.68;;
38435;SDS011;24220;48.168;14.024;2022-10-31T11:26:42;14.98;;;13.07;;
38435;SDS011;24220;48.168;14.024;2022-10-31T11:34:27;16.17;;;12.65;;
38435;SDS011;24220;48.168;14.024;2022-10-31T11:37:13;15.82;;;13.00;;
38435;SDS011;24220;48.168;14.024;2022-10-31T11:39:49;15.32;;;13.73;;
38435;SDS011;24220;48.168;14.024;2022-10-31T11:42:28;15.05;;;13.45;;
38435;SDS011;24220;48.168;14.024;2022-10-31T11:45:46;14.15;;;12.75;;
38435;SDS011;24220;48.168;14.024;2022-10-31T11:48:14;14.52;;;13.02;;
38435;SDS011;24220;48.168;14.024;2022-10-31T11:50:47;16.10;;;14.23;;
38435;SDS011;24220;48.168;14.024;2022-10-31T11:53:17;17.13;;;14.35;;
38435;SDS011;24220;48.168;14.024;2022-10-31T11:56:00;18.40;;;14.63;;
38435;SDS011;24220;48.168;14.024;2022-10-31T11:58:33;18.73;;;14.82;;
38435;SDS011;24220;48.168;14.024;2022-10-31T12:01:05;18.00;;;15.60;;
38435;SDS011;24220;48.168;14.024;2022-10-31T12:06:35;27.13;;;19.10;;
38435;SDS011;24220;48.168;14.024;2022-10-31T12:17:02;19.05;;;16.33;;
38435;SDS011;24220;48.168;14.024;2022-10-31T12:36:53;21.17;;;19.00;;
38435;SDS011;24220;48.168;14.024;2022-10-31T12:59:45;24.80;;;21.98;;
38435;SDS011;24220;48.168;14.024;2022-10-31T13:02:31;24.50;;;21.42;;
38435;SDS011;24220;48.168;14.024;2022-10-31T13:05:13;27.23;;;22.02;;
38435;SDS011;24220;48.168;14.024;2022-10-31T13:07:42;26.35;;;22.17;;
38435;SDS011;24220;48.168;14.024;2022-10-31T13:10:30;25.30;;;22.52;;
38435;SDS011;24220;48.168;14.024;2022-10-31T13:13:01;25.52;;;22.33;;
38435;SDS011;24220;48.168;14.024;2022-10-31T13:15:35;26.02;;;22.73;;
38435;SDS011;24220;48.168;14.024;2022-10-31T13:18:17;26.55;;;23.52;;
38435;SDS011;24220;48.168;14.024;2022-10-31T13:21:02;27.83;;;22.60;;
38435;SDS011;24220;48.168;14.024;2022-10-31T13:23:35;32.50;;;24.58;;
38435;SDS011;24220;48.168;14.024;2022-10-31T13:26:24;46.90;;;29.60;;
38435;SDS011;24220;48.168;14.024;2022-10-31T13:29:42;37.85;;;27.42;;
38435;SDS011;24220;48.168;14.024;2022-10-31T13:31:55;27.27;;;22.92;;
38435;SDS011;24220;48.168;14.024;2022-10-31T13:39:45;28.02;;;22.63;;
38435;SDS011;24220;48.168;14.024;2022-10-31T13:42:40;26.77;;;23.38;;
38435;SDS011;24220;48.168;14.024;2022-10-31T13:45:30;27.83;;;24.02;;
38435;SDS011;24220;48.168;14.024;2022-10-31T13:50:57;27.95;;;22.58;;
38435;SDS011;24220;48.168;14.024;2022-10-31T13:56:24;35.95;;;28.10;;
38435;SDS011;24220;48.168;14.024;2022-10-31T14:01:44;30.58;;;25.90;;
38435;SDS011;24220;48.168;14.024;2022-10-31T14:04:18;38.00;;;27.15;;
38435;SDS011;24220;48.168;14.024;2022-10-31T14:06:56;32.03;;;26.10;;
38435;SDS011;24220;48.168;14.024;2022-10-31T14:09:56;31.05;;;25.33;;
38435;SDS011;24220;48.168;14.024;2022-10-31T14:12:39;29.95;;;24.77;;
38435;SDS011;24220;48.168;14.024;2022-10-31T14:15:14;30.58;;;25.08;;
38435;SDS011;24220;48.168;14.024;2022-10-31T14:17:52;27.70;;;23.83;;
38435;SDS011;24220;48.168;14.024;2022-10-31T14:23:28;29.27;;;24.60;;
38435;SDS011;24220;48.168;14.024;2022-10-31T14:31:53;29.50;;;24.90;;
38435;SDS011;24220;48.168;14.024;2022-10-31T14:34:37;27.42;;;24.42;;
38435;SDS011;24220;48.168;14.024;2022-10-31T14:37:12;30.10;;;24.20;;
38435;SDS011;24220;48.168;14.024;2022-10-31T14:48:08;30.50;;;25.05;;
38435;SDS011;24220;48.168;14.024;2022-10-31T14:50:58;33.28;;;26.00;;
38435;SDS011;24220;48.168;14.024;2022-10-31T14:53:29;55.42;;;33.35;;
38435;SDS011;24220;48.168;14.024;2022-10-31T14:56:02;39.58;;;28.70;;
38435;SDS011;24220;48.168;14.024;2022-10-31T14:58:40;71.97;;;38.42;;
38435;SDS011;24220;48.168;14.024;2022-10-31T15:01:24;42.50;;;29.90;;
38435;SDS011;24220;48.168;14.024;2022-10-31T15:04:16;39.83;;;30.10;;
38435;SDS011;24220;48.168;14.024;2022-10-31T15:06:57;36.47;;;28.27;;
38435;SDS011;24220;48.168;14.024;2022-10-31T15:09:33;39.67;;;28.90;;
38435;SDS011;24220;48.168;14.024;2022-10-31T15:12:16;37.75;;;29.02;;
38435;SDS011;24220;48.168;14.024;2022-10-31T15:14:55;42.58;;;30.10;;
38435;SDS011;24220;48.168;14.024;2022-10-31T15:17:23;39.40;;;29.15;;
38435;SDS011;24220;48.168;14.024;2022-10-31T15:19:54;36.15;;;28.83;;
38435;SDS011;24220;48.168;14.024;2022-10-31T15:22:25;36.65;;;28.90;;
38435;SDS011;24220;48.168;14.024;2022-10-31T15:24:54;36.45;;;28.38;;
38435;SDS011;24220;48.168;14.024;2022-10-31T15:27:23;36.75;;;28.52;;
38435;SDS011;24220;48.168;14.024;2022-10-31T15:29:59;38.88;;;28.35;;
38435;SDS011;24220;48.168;14.024;2022-10-31T15:32:28;42.55;;;30.55;;
38435;SDS011;24220;48.168;14.024;2022-10-31T15:34:58;43.53;;;31.17;;
38435;SDS011;24220;48.168;14.024;2022-10-31T15:37:26;52.17;;;32.22;;
38435;SDS011;24220;48.168;14.024;2022-10-31T15:39:53;50.38;;;33.88;;
38435;SDS011;24220;48.168;14.024;2022-10-31T15:42:32;44.08;;;30.65;;
38435;SDS011;24220;48.168;14.024;2022-10-31T15:45:16;52.97;;;33.33;;
38435;SDS011;24220;48.168;14.024;2022-10-31T15:47:49;52.63;;;35.30;;
38435;SDS011;24220;48.168;14.024;2022-10-31T15:50:41;52.63;;;33.15;;
38435;SDS011;24220;48.168;14.024;2022-10-31T15:53:19;54.47;;;32.88;;
38435;SDS011;24220;48.168;14.024;2022-10-31T15:55:51;44.35;;;32.70;;
38435;SDS011;24220;48.168;14.024;2022-10-31T15:58:24;45.83;;;33.10;;
38435;SDS011;24220;48.168;14.024;2022-10-31T16:00:59;64.97;;;32.75;;
38435;SDS011;24220;48.168;14.024;2022-10-31T16:03:29;43.15;;;32.40;;
38435;SDS011;24220;48.168;14.024;2022-10-31T16:06:02;43.60;;;30.80;;
38435;SDS011;24220;48.168;14.024;2022-10-31T16:08:36;46.13;;;31.10;;
38435;SDS011;24220;48.168;14.024;2022-10-31T16:13:38;50.97;;;28.13;;
38435;SDS011;24220;48.168;14.024;2022-10-31T16:16:13;43.25;;;27.88;;
38435;SDS011;24220;48.168;14.024;2022-10-31T16:19:02;49.67;;;27.80;;
38435;SDS011;24220;48.168;14.024;2022-10-31T16:21:39;36.80;;;27.15;;
38435;SDS011;24220;48.168;14.024;2022-10-31T16:27:06;52.53;;;28.25;;
38435;SDS011;24220;48.168;14.024;2022-10-31T16:29:44;36.03;;;27.35;;
38435;SDS011;24220;48.168;14.024;2022-10-31T16:38:13;67.97;;;35.13;;
38435;SDS011;24220;48.168;14.024;2022-10-31T16:40:40;39.33;;;31.58;;
38435;SDS011;24220;48.168;14.024;2022-10-31T16:43:09;46.47;;;33.38;;
38435;SDS011;24220;48.168;14.024;2022-10-31T16:45:45;39.72;;;31.90;;
38435;SDS011;24220;48.168;14.024;2022-10-31T16:48:20;50.30;;;31.52;;
38435;SDS011;24220;48.168;14.024;2022-10-31T16:50:52;37.17;;;30.42;;
38435;SDS011;24220;48.168;14.024;2022-10-31T16:53:19;36.67;;;28.88;;
38435;SDS011;24220;48.168;14.024;2022-10-31T16:58:23;42.97;;;26.83;;
38435;SDS011;24220;48.168;14.024;2022-10-31T17:00:53;43.80;;;26.80;;
38435;SDS011;24220;48.168;14.024;2022-10-31T17:03:21;45.75;;;25.00;;
38435;SDS011;24220;48.168;14.024;2022-10-31T17:05:49;26.98;;;23.90;;
38435;SDS011;24220;48.168;14.024;2022-10-31T17:08:16;44.20;;;23.25;;
38435;SDS011;24220;48.168;14.024;2022-10-31T17:10:50;39.65;;;22.08;;
38435;SDS011;24220;48.168;14.024;2022-10-31T17:13:20;29.20;;;23.00;;
38435;SDS011;24220;48.168;14.024;2022-10-31T17:15:50;43.83;;;22.67;;
38435;SDS011;24220;48.168;14.024;2022-10-31T17:18:22;49.88;;;23.13;;
38435;SDS011;24220;48.168;14.024;2022-10-31T17:20:57;40.27;;;17.00;;
38435;SDS011;24220;48.168;14.024;2022-10-31T17:23:29;39.53;;;22.38;;
38435;SDS011;24220;48.168;14.024;2022-10-31T17:25:59;31.05;;;24.35;;
38435;SDS011;24220;48.168;14.024;2022-10-31T17:28:26;42.72;;;23.60;;
38435;SDS011;24220;48.168;14.024;2022-10-31T17:30:56;40.78;;;24.15;;
38435;SDS011;24220;48.168;14.024;2022-10-31T17:33:29;36.47;;;23.63;;
38435;SDS011;24220;48.168;14.024;2022-10-31T17:35:57;35.75;;;23.75;;
38435;SDS011;24220;48.168;14.024;2022-10-31T17:38:24;38.80;;;24.73;;
38435;SDS011;24220;48.168;14.024;2022-10-31T17:40:52;36.40;;;25.95;;
38435;SDS011;24220;48.168;14.024;2022-10-31T17:43:20;31.90;;;24.85;;
38435;SDS011;24220;48.168;14.024;2022-10-31T17:45:52;49.08;;;32.00;;
38435;SDS011;24220;48.168;14.024;2022-10-31T17:48:20;37.17;;;27.52;;
38435;SDS011;24220;48.168;14.024;2022-10-31T17:50:47;36.13;;;27.38;;